Decoded Metar for PAIL (ILIAMNA in AK, USA) (IATA:ILI) | Meteo·Mobile Aviation Weather
aviador You're here:

PAIL Decoded Metar

ILIAMNA in AK, USA
Report Time2019-02-17 20:03:00
UTC Time2019-02-17 20:45:48
Flight Rules lifr LIFR
Wind170° at 04 kt
W.Decomp.*RWY 17: 3.8 kt HW 1.2 kt LCW
RWY 07: 0.5 kt HW 4.0 kt RCW
W.Rank170° ranks 27
Current wind is below 170° avg. (6.2)
Visibility805 m
Phenomena:Snow
Fog
Clouds:N/A
Ceiling900 ft
Temp01°C (ISA -14)
Dew Point01°C (100% RH)
AAT-2.3°C
QNH1006 hPa
Density Alt-1,178 ft
Elevation161 ft
Report Wrong Elevation
Raw Report
PAIL 172003Z 17004KT 1/2SM SN FG VV009 01/01 A2972 RMK AO2 P0002
T00060006 $=

Extra information for PAIL:More info

Metar Taf Metar & Taf Last 4 Metars F.Rules Stats Wind Profile Meteogram Temp Stats Airport Information Weather charts Add Link Nearby VenuesMetar ALERT Operation Metar Decoded Social comments

AIRNAV info for PAIL